createdAt,value
2022-11-20T00:02:10.734Z,99846.09
2022-11-20T00:05:12.335Z,99838.03
2022-11-20T00:08:14.043Z,99838.66
2022-11-20T00:11:21.024Z,99831.59
2022-11-20T00:14:22.544Z,99832.78
2022-11-20T00:17:24.076Z,99831.69
2022-11-20T00:20:25.799Z,99831.19
2022-11-20T00:23:27.327Z,99841.50
2022-11-20T00:26:29.559Z,99842.91
2022-11-20T00:29:31.096Z,99848.53
2022-11-20T00:32:32.604Z,99872.09
2022-11-20T00:35:34.129Z,99861.06
2022-11-20T00:38:35.849Z,99848.00
2022-11-20T00:41:37.372Z,99863.41
2022-11-20T00:44:39.030Z,99868.00
2022-11-20T00:47:40.539Z,99865.00
2022-11-20T00:50:42.401Z,99857.78
2022-11-20T00:53:44.021Z,99802.94
2022-11-20T00:56:45.551Z,99847.81
2022-11-20T00:59:47.067Z,99848.37
2022-11-20T01:02:48.574Z,99835.41
2022-11-20T01:05:50.079Z,99842.53
2022-11-20T01:08:54.305Z,99828.13
2022-11-20T01:11:57.160Z,99834.50
2022-11-20T01:14:58.702Z,99839.41
2022-11-20T01:18:00.233Z,99845.50
2022-11-20T01:21:08.109Z,99836.13
2022-11-20T01:24:13.509Z,99848.56
2022-11-20T01:27:15.053Z,99837.88
2022-11-20T01:30:16.590Z,99844.09
2022-11-20T01:33:18.125Z,99834.56
2022-11-20T01:36:20.935Z,99842.72
2022-11-20T01:39:25.248Z,99744.63
2022-11-20T01:42:45.418Z,99825.50
2022-11-20T01:46:02.151Z,99818.94
2022-11-20T01:49:06.733Z,99836.22
2022-11-20T01:52:18.810Z,99826.00
2022-11-20T01:55:24.844Z,99828.97
2022-11-20T01:58:32.780Z,99816.94
2022-11-20T02:01:34.790Z,99811.25
2022-11-20T02:04:36.861Z,99810.75
2022-11-20T02:07:38.893Z,99816.66
2022-11-20T02:10:40.510Z,99764.06
2022-11-20T02:13:45.452Z,99817.56
2022-11-20T02:16:48.533Z,99826.31
2022-11-20T02:19:50.095Z,99837.66
2022-11-20T02:23:05.065Z,99830.56
2022-11-20T02:26:10.206Z,99833.50
2022-11-20T02:29:11.762Z,99827.69
2022-11-20T02:32:27.818Z,99828.75
2022-11-20T02:35:29.260Z,99775.38
2022-11-20T02:38:31.109Z,99817.91
2022-11-20T02:41:38.097Z,99805.44
2022-11-20T02:44:39.632Z,99797.84
2022-11-20T02:47:41.169Z,99798.94
2022-11-20T02:50:42.743Z,99799.00
2022-11-20T02:53:44.286Z,99794.72
2022-11-20T02:56:45.929Z,99795.53
2022-11-20T02:59:47.540Z,99767.63
2022-11-20T03:02:49.095Z,99790.88
2022-11-20T03:05:50.731Z,99788.47
2022-11-20T03:08:52.246Z,99774.41
2022-11-20T03:11:53.826Z,99770.06
2022-11-20T03:14:55.351Z,99775.09
2022-11-20T03:17:56.926Z,99777.53
2022-11-20T03:21:00.019Z,99776.53
2022-11-20T03:24:02.035Z,99775.91
2022-11-20T03:27:03.580Z,99798.62
2022-11-20T03:30:06.449Z,99800.03
2022-11-20T03:33:08.002Z,99801.66
2022-11-20T03:36:12.022Z,99808.69
2022-11-20T03:39:13.620Z,99797.84
2022-11-20T03:42:33.545Z,99788.00
2022-11-20T03:45:35.068Z,99800.94
2022-11-20T03:48:36.743Z,99789.81
2022-11-20T03:51:38.350Z,99777.25
2022-11-20T03:54:39.887Z,99778.03
2022-11-20T03:57:41.834Z,99787.31
2022-11-20T04:00:43.398Z,99776.44
2022-11-20T04:03:45.474Z,99774.25
2022-11-20T04:06:47.072Z,99771.53
2022-11-20T04:09:49.191Z,99778.56
2022-11-20T04:12:50.731Z,99782.88
2022-11-20T04:15:52.265Z,99780.66
2022-11-20T04:18:55.579Z,99777.16
2022-11-20T04:21:57.108Z,99765.00
2022-11-20T04:24:58.663Z,99759.59
2022-11-20T04:28:00.219Z,99754.16
2022-11-20T04:31:09.959Z,99751.94
2022-11-20T04:34:12.498Z,99745.72
2022-11-20T04:37:14.029Z,99739.97
2022-11-20T04:40:15.650Z,99750.81
2022-11-20T04:43:17.173Z,99763.31
2022-11-20T04:46:20.120Z,99753.84
2022-11-20T04:49:22.049Z,99758.06
2022-11-20T04:52:23.787Z,99758.56
2022-11-20T04:55:25.303Z,99743.41
2022-11-20T04:58:26.834Z,99743.59
2022-11-20T05:01:28.407Z,99735.47
2022-11-20T05:04:29.952Z,99729.53
2022-11-20T05:07:31.518Z,99729.53
2022-11-20T05:10:33.151Z,99729.53
2022-11-20T05:13:34.710Z,99721.38
2022-11-20T05:16:37.327Z,99726.00
2022-11-20T05:19:38.911Z,99724.09
2022-11-20T05:22:40.440Z,99739.25
2022-11-20T05:25:41.974Z,99726.00
2022-11-20T05:28:43.964Z,99726.50
2022-11-20T05:31:45.482Z,99717.56
2022-11-20T05:34:47.002Z,99703.50
2022-11-20T05:37:48.530Z,99696.16
2022-11-20T05:40:50.046Z,99692.12
2022-11-20T05:43:52.015Z,99686.44
2022-11-20T05:46:53.532Z,99667.44
2022-11-20T05:49:55.388Z,99710.22
2022-11-20T05:52:59.463Z,99685.94
2022-11-20T05:56:02.592Z,99724.59
2022-11-20T05:59:04.116Z,99721.88
2022-11-20T06:02:05.677Z,99718.37
2022-11-20T06:05:07.630Z,99726.81
2022-11-20T06:08:09.153Z,99738.47
2022-11-20T06:11:13.170Z,99744.69
2022-11-20T06:14:14.754Z,99729.53
2022-11-20T06:17:16.286Z,99714.84
2022-11-20T06:20:17.835Z,99729.53
2022-11-20T06:23:19.346Z,99742.19
2022-11-20T06:26:23.668Z,99723.19
2022-11-20T06:29:26.798Z,99728.81
2022-11-20T06:32:31.560Z,99733.16
2022-11-20T06:35:33.081Z,99733.16
2022-11-20T06:38:34.695Z,99728.72
2022-11-20T06:41:36.214Z,99751.84
2022-11-20T06:44:37.790Z,99770.03
2022-11-20T06:47:39.424Z,99768.00
2022-11-20T06:50:40.964Z,99780.87
2022-11-20T06:53:42.544Z,99789.38
2022-11-20T06:56:48.366Z,99792.19
2022-11-20T06:59:49.900Z,99790.69
2022-11-20T07:02:51.510Z,99777.78
2022-11-20T07:05:56.038Z,99773.66
2022-11-20T07:08:58.121Z,99754.41
2022-11-20T07:11:59.679Z,99753.97
2022-11-20T07:15:01.272Z,99759.41
2022-11-20T07:18:02.865Z,99759.50
2022-11-20T07:21:06.431Z,99756.06
2022-11-20T07:24:08.092Z,99756.41
2022-11-20T07:27:09.617Z,99769.78
2022-11-20T07:30:11.644Z,99773.59
2022-11-20T07:33:13.182Z,99777.66
2022-11-20T07:36:14.747Z,99793.38
2022-11-20T07:39:16.281Z,99796.75
2022-11-20T07:42:17.808Z,99802.75
2022-11-20T07:45:20.132Z,99803.56
2022-11-20T07:48:21.737Z,99759.34
2022-11-20T07:51:23.345Z,99800.78
2022-11-20T07:54:24.906Z,99791.66
2022-11-20T07:57:28.424Z,99808.16
2022-11-20T08:00:30.308Z,99804.94
2022-11-20T08:03:31.999Z,99802.41
2022-11-20T08:06:33.812Z,99795.34
2022-11-20T08:09:35.386Z,99765.72
2022-11-20T08:12:55.723Z,99778.97
2022-11-20T08:15:57.252Z,99780.69
2022-11-20T08:18:58.811Z,99796.81
2022-11-20T08:22:00.367Z,99802.94
2022-11-20T08:25:02.226Z,99792.69
2022-11-20T08:28:18.387Z,99795.91
2022-11-20T08:31:22.668Z,99793.22
2022-11-20T08:34:24.256Z,99788.00
2022-11-20T08:37:25.821Z,99785.44
2022-11-20T08:40:27.432Z,99771.38
2022-11-20T08:43:28.985Z,99780.72
2022-11-20T08:46:44.879Z,99778.38
2022-11-20T08:49:46.423Z,99782.97
2022-11-20T08:52:48.026Z,99784.94
2022-11-20T08:55:49.545Z,99782.09
2022-11-20T08:59:18.323Z,99783.25
2022-11-20T09:02:14.133Z,99783.88
2022-11-20T09:05:15.660Z,99793.50
2022-11-20T09:08:17.233Z,99805.53
2022-11-20T09:11:18.977Z,99807.81
2022-11-20T09:14:20.572Z,99802.66
2022-11-20T09:17:22.102Z,99801.56
2022-11-20T09:20:23.711Z,99813.72
2022-11-20T09:23:25.480Z,99816.47
2022-11-20T09:26:27.093Z,99815.19
2022-11-20T09:29:28.617Z,99831.69
2022-11-20T09:32:30.170Z,99819.19
2022-11-20T09:35:31.694Z,99816.47
2022-11-20T09:38:33.227Z,99812.94
2022-11-20T09:41:59.655Z,99802.50
2022-11-20T09:45:11.493Z,99804.59
2022-11-20T09:48:22.156Z,99804.91
2022-11-20T09:51:37.833Z,99785.03
2022-11-20T09:54:40.527Z,99785.19
2022-11-20T09:57:44.547Z,99786.59
2022-11-20T10:00:47.143Z,99733.34
2022-11-20T10:04:17.209Z,99776.59
2022-11-20T10:07:33.428Z,99772.16
2022-11-20T10:10:53.573Z,99777.06
2022-11-20T10:14:01.466Z,99771.81
2022-11-20T10:17:16.383Z,99773.63
2022-11-20T10:20:23.138Z,99763.75
2022-11-20T10:23:42.739Z,99758.69
2022-11-20T10:26:52.299Z,99739.47
2022-11-20T10:30:10.449Z,99738.38
2022-11-20T10:33:18.737Z,99748.69
2022-11-20T10:36:22.607Z,99742.87
2022-11-20T10:39:35.130Z,99737.16
2022-11-20T10:42:44.754Z,99733.78
2022-11-20T10:46:06.372Z,99739.25
2022-11-20T10:49:14.414Z,99756.44
2022-11-20T10:52:21.887Z,99753.06
2022-11-20T10:55:26.267Z,99747.16
2022-11-20T10:59:03.189Z,99745.78
2022-11-20T11:02:18.248Z,99741.75
2022-11-20T11:05:50.108Z,99749.78
2022-11-20T11:08:53.157Z,99754.75
2022-11-20T11:11:54.684Z,99766.47
2022-11-20T11:14:57.802Z,99760.50
2022-11-20T11:17:59.407Z,99772.94
2022-11-20T11:21:02.993Z,99771.00
2022-11-20T11:24:26.906Z,99764.53
2022-11-20T11:27:27.192Z,99732.59
2022-11-20T11:30:31.244Z,99765.56
2022-11-20T11:33:36.915Z,99763.09
2022-11-20T11:36:38.897Z,99752.34
2022-11-20T11:39:42.639Z,99753.06
2022-11-20T11:42:45.575Z,99746.19
2022-11-20T11:45:54.107Z,99748.44
2022-11-20T11:49:05.871Z,99738.62
2022-11-20T11:52:17.757Z,99720.72
2022-11-20T11:55:34.863Z,99739.06
2022-11-20T11:58:48.104Z,99729.38
2022-11-20T12:02:04.913Z,99734.22
2022-11-20T12:05:14.503Z,99731.69
2022-11-20T12:08:25.888Z,99687.78
2022-11-20T12:12:00.246Z,99736.94
2022-11-20T12:15:02.029Z,99731.69
2022-11-20T12:18:09.604Z,99728.91
2022-11-20T12:21:21.305Z,99728.38
2022-11-20T12:24:28.565Z,99715.50
2022-11-20T12:27:58.188Z,99708.47
2022-11-20T12:31:21.545Z,99710.63
2022-11-20T12:34:51.017Z,99714.97
2022-11-20T12:38:00.467Z,99711.19
2022-11-20T12:41:51.395Z,99708.56
2022-11-20T12:45:11.591Z,99716.47
2022-11-20T12:48:35.146Z,99716.22
2022-11-20T12:51:42.719Z,99726.06
2022-11-20T12:55:04.451Z,99732.00
2022-11-20T12:58:44.974Z,99738.28
2022-11-20T13:01:52.445Z,99737.09
2022-11-20T13:05:10.435Z,99738.00
2022-11-20T13:08:36.283Z,99733.91
2022-11-20T13:12:00.655Z,99731.81
2022-11-20T13:15:30.342Z,99740.03
2022-11-20T13:18:40.697Z,99745.72
2022-11-20T13:21:47.594Z,99743.66
2022-11-20T13:24:52.735Z,99733.19
2022-11-20T13:27:55.538Z,99725.50
2022-11-20T13:30:58.263Z,99716.84
2022-11-20T13:34:01.276Z,99729.59
2022-11-20T13:37:04.805Z,99672.06
2022-11-20T13:40:09.425Z,99718.44
2022-11-20T13:43:28.078Z,99713.69
2022-11-20T13:46:42.057Z,99712.84
2022-11-20T13:49:45.723Z,99662.03
2022-11-20T13:52:56.292Z,99702.28
2022-11-20T13:56:26.575Z,99697.75
2022-11-20T13:59:39.667Z,99680.00
2022-11-20T14:02:41.505Z,99684.59
2022-11-20T14:06:00.987Z,99684.81
2022-11-20T14:09:02.556Z,99668.38
2022-11-20T14:12:05.213Z,99685.38
2022-11-20T14:15:07.055Z,99678.53
2022-11-20T14:18:34.907Z,99687.72
2022-11-20T14:21:36.460Z,99676.34
2022-11-20T14:24:38.337Z,99672.69
2022-11-20T14:27:42.236Z,99680.44
2022-11-20T14:30:46.163Z,99697.94
2022-11-20T14:33:48.008Z,99691.84
2022-11-20T14:36:50.176Z,99700.34
2022-11-20T14:39:56.622Z,99703.22
2022-11-20T14:42:59.683Z,99702.44
2022-11-20T14:46:04.022Z,99681.91
2022-11-20T14:49:06.176Z,99704.50
2022-11-20T14:52:19.457Z,99705.94
2022-11-20T14:55:38.285Z,99710.16
2022-11-20T14:58:39.903Z,99708.19
2022-11-20T15:01:59.987Z,99716.34
2022-11-20T15:05:04.301Z,99722.09
2022-11-20T15:08:09.419Z,99730.38
2022-11-20T15:11:24.125Z,99722.50
2022-11-20T15:14:27.142Z,99724.19
2022-11-20T15:17:28.710Z,99735.28
2022-11-20T15:20:32.803Z,99728.66
2022-11-20T15:23:34.805Z,99742.31
2022-11-20T15:26:36.519Z,99740.63
2022-11-20T15:29:38.046Z,99729.31
2022-11-20T15:32:39.605Z,99725.03
2022-11-20T15:35:41.467Z,99732.44
2022-11-20T15:38:43.211Z,99744.31
2022-11-20T15:41:44.751Z,99739.75
2022-11-20T15:44:46.268Z,99747.16
2022-11-20T15:47:47.790Z,99737.53
2022-11-20T15:50:49.249Z,99747.59
2022-11-20T15:53:50.773Z,99744.69
2022-11-20T15:56:55.160Z,99738.16
2022-11-20T15:59:56.697Z,99742.87
2022-11-20T16:02:58.266Z,99740.88
2022-11-20T16:05:59.795Z,99739.38
2022-11-20T16:09:03.704Z,99743.59
2022-11-20T16:12:05.521Z,99742.28
2022-11-20T16:15:27.520Z,99738.47
2022-11-20T16:18:29.036Z,99739.47
2022-11-20T16:21:33.567Z,99736.56
2022-11-20T16:24:35.171Z,99737.75
2022-11-20T16:27:36.729Z,99725.69
2022-11-20T16:30:38.381Z,99729.31
2022-11-20T16:33:40.628Z,99730.81
2022-11-20T16:36:43.358Z,99703.97
2022-11-20T16:39:44.959Z,99727.03
2022-11-20T16:42:46.571Z,99724.81
2022-11-20T16:45:48.088Z,99718.87
2022-11-20T16:48:57.889Z,99715.88
2022-11-20T16:51:59.765Z,99714.19
2022-11-20T16:55:01.450Z,99719.34
2022-11-20T16:58:02.983Z,99716.47
2022-11-20T17:01:12.022Z,99707.31
2022-11-20T17:04:13.762Z,99711.75
2022-11-20T17:07:15.394Z,99710.16
2022-11-20T17:10:16.977Z,99705.00
2022-11-20T17:13:18.512Z,99708.50
2022-11-20T17:16:22.221Z,99697.59
2022-11-20T17:19:23.728Z,99696.06
2022-11-20T17:22:25.270Z,99689.31
2022-11-20T17:25:26.911Z,99689.31
2022-11-20T17:28:28.517Z,99690.66
2022-11-20T17:31:31.097Z,99683.66
2022-11-20T17:34:32.619Z,99644.53
2022-11-20T17:37:34.181Z,99682.78
2022-11-20T17:40:35.715Z,99674.06
2022-11-20T17:43:38.114Z,99670.84
2022-11-20T17:46:39.813Z,99659.97
2022-11-20T17:49:41.347Z,99668.47
2022-11-20T17:52:42.850Z,99666.41
2022-11-20T17:56:03.057Z,99665.50
2022-11-20T17:59:06.265Z,99671.88
2022-11-20T18:02:07.912Z,99668.69
2022-11-20T18:05:09.529Z,99645.72
2022-11-20T18:08:11.110Z,99661.50
2022-11-20T18:11:17.163Z,99674.16
2022-11-20T18:14:34.836Z,99615.00
2022-11-20T18:17:36.553Z,99692.34
2022-11-20T18:20:39.948Z,99690.00
2022-11-20T18:23:41.846Z,99693.91
2022-11-20T18:26:44.687Z,99694.59
2022-11-20T18:29:48.604Z,99695.00
2022-11-20T18:32:50.278Z,99709.94
2022-11-20T18:35:52.190Z,99719.47
2022-11-20T18:38:58.538Z,99728.09
2022-11-20T18:42:18.517Z,99741.91
2022-11-20T18:45:20.054Z,99739.19
2022-11-20T18:48:21.577Z,99737.88
2022-11-20T18:51:23.107Z,99754.75
2022-11-20T18:54:25.143Z,99742.25
2022-11-20T18:57:27.962Z,99737.72
2022-11-20T19:00:29.506Z,99739.91
2022-11-20T19:03:31.104Z,99742.03
2022-11-20T19:06:32.690Z,99747.63
2022-11-20T19:09:34.292Z,99752.56
2022-11-20T19:12:35.819Z,99741.78
2022-11-20T19:15:37.753Z,99741.19
2022-11-20T19:18:39.487Z,99733.66
2022-11-20T19:21:42.214Z,99740.38
2022-11-20T19:24:43.751Z,99687.47
2022-11-20T19:27:45.282Z,99744.22
2022-11-20T19:30:46.839Z,99742.75
2022-11-20T19:33:52.369Z,99721.13
2022-11-20T19:36:54.146Z,99696.63
2022-11-20T19:39:59.022Z,99697.81
2022-11-20T19:43:00.581Z,99712.66
2022-11-20T19:46:02.560Z,99718.22
2022-11-20T19:49:05.537Z,99711.81
2022-11-20T19:52:07.139Z,99707.25
2022-11-20T19:55:10.002Z,99698.81
2022-11-20T19:58:11.546Z,99698.50
2022-11-20T20:01:18.912Z,99698.63
2022-11-20T20:04:20.515Z,99693.12
2022-11-20T20:07:22.097Z,99695.41
2022-11-20T20:10:23.675Z,99658.19
2022-11-20T20:13:28.403Z,99701.00
2022-11-20T20:16:30.178Z,99698.00
2022-11-20T20:19:31.750Z,99677.62
2022-11-20T20:22:33.309Z,99679.53
2022-11-20T20:25:38.232Z,99674.81
2022-11-20T20:28:40.305Z,99676.56
2022-11-20T20:31:42.028Z,99677.94
2022-11-20T20:34:43.560Z,99677.22
2022-11-20T20:37:45.105Z,99674.38
2022-11-20T20:40:48.969Z,99616.16
2022-11-20T20:44:09.539Z,99663.91
2022-11-20T20:47:11.135Z,99674.47
2022-11-20T20:50:13.171Z,99659.31
2022-11-20T20:53:14.785Z,99663.63
2022-11-20T20:56:17.397Z,99667.91
2022-11-20T20:59:18.931Z,99674.03
2022-11-20T21:02:20.641Z,99680.03
2022-11-20T21:05:22.239Z,99676.19
2022-11-20T21:08:25.405Z,99666.91
2022-11-20T21:11:27.273Z,99671.69
2022-11-20T21:14:28.878Z,99680.16
2022-11-20T21:17:30.400Z,99675.63
2022-11-20T21:20:50.527Z,99689.91
2022-11-20T21:23:53.439Z,99668.91
2022-11-20T21:26:56.692Z,99672.16
2022-11-20T21:29:58.210Z,99670.00
2022-11-20T21:33:02.974Z,99692.94
2022-11-20T21:36:04.736Z,99680.37
2022-11-20T21:39:06.948Z,99683.56
2022-11-20T21:42:08.541Z,99679.31
2022-11-20T21:45:10.096Z,99677.06
2022-11-20T21:48:11.629Z,99681.66
2022-11-20T21:51:21.930Z,99685.28
2022-11-20T21:54:23.764Z,99676.94
2022-11-20T21:57:25.481Z,99680.56
2022-11-20T22:00:27.064Z,99671.16
2022-11-20T22:03:28.605Z,99647.84
2022-11-20T22:06:34.867Z,99674.78
2022-11-20T22:09:36.392Z,99674.91
2022-11-20T22:12:37.961Z,99669.25
2022-11-20T22:15:59.863Z,99666.97
2022-11-20T22:19:01.339Z,99665.31
2022-11-20T22:22:02.854Z,99658.66
2022-11-20T22:25:04.659Z,99651.91
2022-11-20T22:28:06.227Z,99646.66
2022-11-20T22:31:22.762Z,99646.31
2022-11-20T22:34:24.662Z,99637.50
2022-11-20T22:37:26.462Z,99641.22
2022-11-20T22:40:27.975Z,99639.19
2022-11-20T22:43:29.764Z,99634.81
2022-11-20T22:46:33.492Z,99620.53
2022-11-20T22:49:35.018Z,99631.34
2022-11-20T22:52:36.547Z,99617.91
2022-11-20T22:55:38.340Z,99621.56
2022-11-20T22:58:41.841Z,99621.13
2022-11-20T23:01:43.630Z,99618.38
2022-11-20T23:04:45.155Z,99610.31
2022-11-20T23:07:46.702Z,99615.41
2022-11-20T23:10:48.250Z,99605.59
2022-11-20T23:13:56.039Z,99617.66
2022-11-20T23:16:57.596Z,99611.78
2022-11-20T23:19:59.149Z,99605.16
2022-11-20T23:23:00.708Z,99606.84
2022-11-20T23:26:03.958Z,99609.06
2022-11-20T23:29:05.994Z,99600.50
2022-11-20T23:32:07.575Z,99609.41
2022-11-20T23:35:09.407Z,99604.06
2022-11-20T23:38:10.957Z,99604.63
2022-11-20T23:41:13.209Z,99586.94
2022-11-20T23:44:14.733Z,99602.78
2022-11-20T23:47:16.246Z,99596.56
2022-11-20T23:50:17.848Z,99589.19
2022-11-20T23:53:19.713Z,99580.59
2022-11-20T23:56:21.271Z,99584.88
2022-11-20T23:59:22.856Z,99587.59
